sensor_id;sensor_type;location;lat;lon;timestamp;P1;durP1;ratioP1;P2;durP2;ratioP2
6185;SDS011;3126;52.738;8.316;2023-08-07T00:02:12;5.57;;;4.97;;
6185;SDS011;3126;52.738;8.316;2023-08-07T00:07:13;9.23;;;5.63;;
6185;SDS011;3126;52.738;8.316;2023-08-07T00:12:14;7.65;;;5.10;;
6185;SDS011;3126;52.738;8.316;2023-08-07T00:17:15;9.63;;;5.15;;
6185;SDS011;3126;52.738;8.316;2023-08-07T00:22:16;7.40;;;4.15;;
6185;SDS011;3126;52.738;8.316;2023-08-07T00:27:17;7.32;;;4.57;;
6185;SDS011;3126;52.738;8.316;2023-08-07T00:32:18;5.90;;;4.80;;
6185;SDS011;3126;52.738;8.316;2023-08-07T00:37:19;6.53;;;4.85;;
6185;SDS011;3126;52.738;8.316;2023-08-07T00:42:19;9.15;;;5.95;;
6185;SDS011;3126;52.738;8.316;2023-08-07T00:47:20;8.48;;;5.35;;
6185;SDS011;3126;52.738;8.316;2023-08-07T00:52:21;4.72;;;4.22;;
6185;SDS011;3126;52.738;8.316;2023-08-07T00:57:22;8.18;;;4.65;;
6185;SDS011;3126;52.738;8.316;2023-08-07T01:02:24;8.73;;;4.93;;
6185;SDS011;3126;52.738;8.316;2023-08-07T01:07:25;8.25;;;5.65;;
6185;SDS011;3126;52.738;8.316;2023-08-07T01:12:28;6.50;;;5.15;;
6185;SDS011;3126;52.738;8.316;2023-08-07T01:17:30;12.05;;;5.68;;
6185;SDS011;3126;52.738;8.316;2023-08-07T01:22:33;10.18;;;6.55;;
6185;SDS011;3126;52.738;8.316;2023-08-07T01:27:35;10.00;;;5.75;;
6185;SDS011;3126;52.738;8.316;2023-08-07T01:32:43;10.55;;;5.75;;
6185;SDS011;3126;52.738;8.316;2023-08-07T01:42:48;7.53;;;4.88;;
6185;SDS011;3126;52.738;8.316;2023-08-07T01:47:49;7.32;;;5.60;;
6185;SDS011;3126;52.738;8.316;2023-08-07T01:52:50;7.63;;;5.55;;
6185;SDS011;3126;52.738;8.316;2023-08-07T01:57:51;7.65;;;5.30;;
6185;SDS011;3126;52.738;8.316;2023-08-07T02:08:33;9.90;;;6.00;;
6185;SDS011;3126;52.738;8.316;2023-08-07T02:13:34;8.23;;;6.32;;
6185;SDS011;3126;52.738;8.316;2023-08-07T02:18:35;9.05;;;5.28;;
6185;SDS011;3126;52.738;8.316;2023-08-07T02:23:36;9.77;;;5.88;;
6185;SDS011;3126;52.738;8.316;2023-08-07T02:28:37;7.95;;;5.57;;
6185;SDS011;3126;52.738;8.316;2023-08-07T02:33:38;11.15;;;6.15;;
6185;SDS011;3126;52.738;8.316;2023-08-07T02:38:41;8.18;;;5.43;;
6185;SDS011;3126;52.738;8.316;2023-08-07T02:43:42;7.30;;;4.88;;
6185;SDS011;3126;52.738;8.316;2023-08-07T02:48:43;9.70;;;5.75;;
6185;SDS011;3126;52.738;8.316;2023-08-07T02:53:44;6.60;;;4.70;;
6185;SDS011;3126;52.738;8.316;2023-08-07T02:58:45;9.40;;;5.90;;
6185;SDS011;3126;52.738;8.316;2023-08-07T03:03:46;8.02;;;4.82;;
6185;SDS011;3126;52.738;8.316;2023-08-07T03:08:47;5.93;;;4.75;;
6185;SDS011;3126;52.738;8.316;2023-08-07T03:13:48;7.35;;;4.97;;
6185;SDS011;3126;52.738;8.316;2023-08-07T03:18:49;7.30;;;6.00;;
6185;SDS011;3126;52.738;8.316;2023-08-07T03:23:50;10.55;;;4.90;;
6185;SDS011;3126;52.738;8.316;2023-08-07T03:28:51;8.57;;;5.28;;
6185;SDS011;3126;52.738;8.316;2023-08-07T03:33:52;8.25;;;5.65;;
6185;SDS011;3126;52.738;8.316;2023-08-07T03:38:53;7.68;;;5.60;;
6185;SDS011;3126;52.738;8.316;2023-08-07T03:43:54;7.10;;;5.13;;
6185;SDS011;3126;52.738;8.316;2023-08-07T03:48:55;5.88;;;4.43;;
6185;SDS011;3126;52.738;8.316;2023-08-07T03:53:56;7.70;;;4.78;;
6185;SDS011;3126;52.738;8.316;2023-08-07T03:58:57;9.10;;;4.95;;
6185;SDS011;3126;52.738;8.316;2023-08-07T04:03:58;6.68;;;4.97;;
6185;SDS011;3126;52.738;8.316;2023-08-07T04:08:59;7.43;;;4.78;;
6185;SDS011;3126;52.738;8.316;2023-08-07T04:14:00;7.07;;;4.78;;
6185;SDS011;3126;52.738;8.316;2023-08-07T04:19:01;8.48;;;5.22;;
6185;SDS011;3126;52.738;8.316;2023-08-07T04:24:02;7.10;;;4.53;;
6185;SDS011;3126;52.738;8.316;2023-08-07T04:29:10;7.43;;;5.03;;
6185;SDS011;3126;52.738;8.316;2023-08-07T04:34:11;7.53;;;4.90;;
6185;SDS011;3126;52.738;8.316;2023-08-07T04:39:12;6.45;;;5.55;;
6185;SDS011;3126;52.738;8.316;2023-08-07T04:44:13;6.55;;;5.03;;
6185;SDS011;3126;52.738;8.316;2023-08-07T04:49:14;6.88;;;5.20;;
6185;SDS011;3126;52.738;8.316;2023-08-07T04:54:15;6.82;;;5.03;;
6185;SDS011;3126;52.738;8.316;2023-08-07T04:59:16;5.55;;;4.60;;
6185;SDS011;3126;52.738;8.316;2023-08-07T05:04:17;11.10;;;6.28;;
6185;SDS011;3126;52.738;8.316;2023-08-07T05:09:18;5.97;;;4.20;;
6185;SDS011;3126;52.738;8.316;2023-08-07T05:14:19;5.25;;;4.63;;
6185;SDS011;3126;52.738;8.316;2023-08-07T05:19:20;7.03;;;4.65;;
6185;SDS011;3126;52.738;8.316;2023-08-07T05:24:21;4.70;;;4.15;;
6185;SDS011;3126;52.738;8.316;2023-08-07T05:29:22;5.57;;;4.13;;
6185;SDS011;3126;52.738;8.316;2023-08-07T05:34:22;6.55;;;4.68;;
6185;SDS011;3126;52.738;8.316;2023-08-07T05:39:23;6.55;;;4.13;;
6185;SDS011;3126;52.738;8.316;2023-08-07T05:44:24;6.85;;;4.15;;
6185;SDS011;3126;52.738;8.316;2023-08-07T05:49:25;6.07;;;3.90;;
6185;SDS011;3126;52.738;8.316;2023-08-07T05:54:26;9.95;;;4.05;;
6185;SDS011;3126;52.738;8.316;2023-08-07T05:59:27;5.32;;;3.05;;
6185;SDS011;3126;52.738;8.316;2023-08-07T06:04:28;4.53;;;3.28;;
6185;SDS011;3126;52.738;8.316;2023-08-07T06:09:29;6.78;;;3.60;;
6185;SDS011;3126;52.738;8.316;2023-08-07T06:14:30;7.93;;;3.40;;
6185;SDS011;3126;52.738;8.316;2023-08-07T06:19:31;4.68;;;3.15;;
6185;SDS011;3126;52.738;8.316;2023-08-07T06:24:32;7.20;;;2.72;;
6185;SDS011;3126;52.738;8.316;2023-08-07T06:29:33;4.22;;;2.17;;
6185;SDS011;3126;52.738;8.316;2023-08-07T06:34:35;4.05;;;1.98;;
6185;SDS011;3126;52.738;8.316;2023-08-07T06:39:37;5.00;;;3.22;;
6185;SDS011;3126;52.738;8.316;2023-08-07T06:44:38;3.53;;;2.10;;
6185;SDS011;3126;52.738;8.316;2023-08-07T06:49:39;7.03;;;2.47;;
6185;SDS011;3126;52.738;8.316;2023-08-07T06:54:40;2.92;;;2.17;;
6185;SDS011;3126;52.738;8.316;2023-08-07T06:59:41;6.85;;;2.80;;
6185;SDS011;3126;52.738;8.316;2023-08-07T07:04:42;4.95;;;2.58;;
6185;SDS011;3126;52.738;8.316;2023-08-07T07:09:43;2.83;;;2.50;;
6185;SDS011;3126;52.738;8.316;2023-08-07T07:14:44;5.35;;;2.13;;
6185;SDS011;3126;52.738;8.316;2023-08-07T07:19:45;3.05;;;1.88;;
6185;SDS011;3126;52.738;8.316;2023-08-07T07:24:46;5.43;;;2.00;;
6185;SDS011;3126;52.738;8.316;2023-08-07T07:29:47;10.13;;;2.33;;
6185;SDS011;3126;52.738;8.316;2023-08-07T07:34:48;5.20;;;2.10;;
6185;SDS011;3126;52.738;8.316;2023-08-07T07:39:49;7.45;;;2.42;;
6185;SDS011;3126;52.738;8.316;2023-08-07T07:44:50;5.47;;;2.10;;
6185;SDS011;3126;52.738;8.316;2023-08-07T07:50:03;5.70;;;2.33;;
6185;SDS011;3126;52.738;8.316;2023-08-07T07:55:04;5.13;;;2.33;;
6185;SDS011;3126;52.738;8.316;2023-08-07T08:00:06;6.80;;;2.78;;
6185;SDS011;3126;52.738;8.316;2023-08-07T08:05:10;9.07;;;2.65;;
6185;SDS011;3126;52.738;8.316;2023-08-07T08:10:12;11.30;;;3.08;;
6185;SDS011;3126;52.738;8.316;2023-08-07T08:15:13;9.88;;;3.10;;
6185;SDS011;3126;52.738;8.316;2023-08-07T08:20:14;4.50;;;2.03;;
6185;SDS011;3126;52.738;8.316;2023-08-07T08:25:17;7.15;;;2.22;;
6185;SDS011;3126;52.738;8.316;2023-08-07T08:30:18;7.18;;;2.28;;
6185;SDS011;3126;52.738;8.316;2023-08-07T08:35:19;7.05;;;2.10;;
6185;SDS011;3126;52.738;8.316;2023-08-07T08:40:20;9.38;;;3.22;;
6185;SDS011;3126;52.738;8.316;2023-08-07T08:45:21;9.10;;;2.83;;
6185;SDS011;3126;52.738;8.316;2023-08-07T08:50:22;5.97;;;2.10;;
6185;SDS011;3126;52.738;8.316;2023-08-07T08:55:24;8.00;;;2.38;;
6185;SDS011;3126;52.738;8.316;2023-08-07T09:00:26;5.72;;;2.00;;
6185;SDS011;3126;52.738;8.316;2023-08-07T09:05:29;9.65;;;1.98;;
6185;SDS011;3126;52.738;8.316;2023-08-07T09:10:31;10.52;;;2.67;;
6185;SDS011;3126;52.738;8.316;2023-08-07T09:15:32;9.25;;;2.58;;
6185;SDS011;3126;52.738;8.316;2023-08-07T09:20:35;5.80;;;2.03;;
6185;SDS011;3126;52.738;8.316;2023-08-07T09:25:36;7.50;;;1.92;;
6185;SDS011;3126;52.738;8.316;2023-08-07T09:30:38;7.80;;;2.92;;
6185;SDS011;3126;52.738;8.316;2023-08-07T09:35:39;9.50;;;2.28;;
6185;SDS011;3126;52.738;8.316;2023-08-07T09:40:41;5.38;;;2.10;;
6185;SDS011;3126;52.738;8.316;2023-08-07T09:45:42;6.63;;;2.30;;
6185;SDS011;3126;52.738;8.316;2023-08-07T09:50:43;7.38;;;2.05;;
6185;SDS011;3126;52.738;8.316;2023-08-07T09:55:46;5.35;;;1.90;;
6185;SDS011;3126;52.738;8.316;2023-08-07T10:00:47;5.38;;;1.92;;
6185;SDS011;3126;52.738;8.316;2023-08-07T10:05:48;6.07;;;2.22;;
6185;SDS011;3126;52.738;8.316;2023-08-07T10:10:49;8.07;;;2.20;;
6185;SDS011;3126;52.738;8.316;2023-08-07T10:15:50;2.78;;;1.95;;
6185;SDS011;3126;52.738;8.316;2023-08-07T10:20:51;6.28;;;2.33;;
6185;SDS011;3126;52.738;8.316;2023-08-07T10:25:52;9.40;;;2.72;;
6185;SDS011;3126;52.738;8.316;2023-08-07T10:30:53;9.35;;;2.25;;
6185;SDS011;3126;52.738;8.316;2023-08-07T10:35:55;9.07;;;2.45;;
6185;SDS011;3126;52.738;8.316;2023-08-07T10:41:06;8.38;;;2.67;;
6185;SDS011;3126;52.738;8.316;2023-08-07T10:46:11;7.32;;;2.33;;
6185;SDS011;3126;52.738;8.316;2023-08-07T10:51:13;7.13;;;2.28;;
6185;SDS011;3126;52.738;8.316;2023-08-07T10:56:17;4.20;;;2.10;;
6185;SDS011;3126;52.738;8.316;2023-08-07T11:01:22;11.00;;;3.35;;
6185;SDS011;3126;52.738;8.316;2023-08-07T11:06:24;6.00;;;2.30;;
6185;SDS011;3126;52.738;8.316;2023-08-07T11:11:26;5.90;;;2.95;;
6185;SDS011;3126;52.738;8.316;2023-08-07T11:16:27;6.43;;;2.13;;
6185;SDS011;3126;52.738;8.316;2023-08-07T11:21:29;6.00;;;2.22;;
6185;SDS011;3126;52.738;8.316;2023-08-07T11:26:31;8.13;;;2.30;;
6185;SDS011;3126;52.738;8.316;2023-08-07T11:31:32;7.20;;;2.45;;
6185;SDS011;3126;52.738;8.316;2023-08-07T11:36:37;10.40;;;2.45;;
6185;SDS011;3126;52.738;8.316;2023-08-07T11:41:40;6.50;;;2.35;;
6185;SDS011;3126;52.738;8.316;2023-08-07T11:46:42;6.13;;;2.30;;
6185;SDS011;3126;52.738;8.316;2023-08-07T11:51:43;8.93;;;2.72;;
6185;SDS011;3126;52.738;8.316;2023-08-07T11:56:45;10.35;;;2.50;;
6185;SDS011;3126;52.738;8.316;2023-08-07T12:01:46;5.32;;;2.42;;
6185;SDS011;3126;52.738;8.316;2023-08-07T12:06:56;6.05;;;2.33;;
6185;SDS011;3126;52.738;8.316;2023-08-07T12:11:57;10.05;;;2.40;;
6185;SDS011;3126;52.738;8.316;2023-08-07T12:17:00;6.22;;;2.10;;
6185;SDS011;3126;52.738;8.316;2023-08-07T12:22:02;6.32;;;2.05;;
6185;SDS011;3126;52.738;8.316;2023-08-07T12:27:04;4.97;;;2.42;;
6185;SDS011;3126;52.738;8.316;2023-08-07T12:32:05;6.25;;;2.35;;
6185;SDS011;3126;52.738;8.316;2023-08-07T12:37:06;5.00;;;1.60;;
6185;SDS011;3126;52.738;8.316;2023-08-07T12:42:07;8.75;;;2.55;;
6185;SDS011;3126;52.738;8.316;2023-08-07T12:47:08;7.00;;;2.15;;
6185;SDS011;3126;52.738;8.316;2023-08-07T12:52:10;9.65;;;2.53;;
6185;SDS011;3126;52.738;8.316;2023-08-07T12:57:11;10.52;;;2.28;;
6185;SDS011;3126;52.738;8.316;2023-08-07T13:02:12;8.52;;;2.00;;
6185;SDS011;3126;52.738;8.316;2023-08-07T13:07:13;4.30;;;2.33;;
6185;SDS011;3126;52.738;8.316;2023-08-07T13:12:14;5.30;;;1.52;;
6185;SDS011;3126;52.738;8.316;2023-08-07T13:17:15;10.45;;;3.03;;
6185;SDS011;3126;52.738;8.316;2023-08-07T13:22:16;6.00;;;2.15;;
6185;SDS011;3126;52.738;8.316;2023-08-07T13:27:17;4.93;;;1.70;;
6185;SDS011;3126;52.738;8.316;2023-08-07T13:32:18;5.88;;;1.40;;
6185;SDS011;3126;52.738;8.316;2023-08-07T13:37:20;4.03;;;1.85;;
6185;SDS011;3126;52.738;8.316;2023-08-07T13:42:23;3.85;;;1.35;;
6185;SDS011;3126;52.738;8.316;2023-08-07T13:47:25;6.57;;;1.42;;
6185;SDS011;3126;52.738;8.316;2023-08-07T13:52:26;2.45;;;1.00;;
6185;SDS011;3126;52.738;8.316;2023-08-07T13:57:27;6.40;;;1.17;;
6185;SDS011;3126;52.738;8.316;2023-08-07T14:02:28;4.32;;;1.38;;
6185;SDS011;3126;52.738;8.316;2023-08-07T14:07:30;3.97;;;1.35;;
6185;SDS011;3126;52.738;8.316;2023-08-07T14:12:31;1.95;;;1.10;;
6185;SDS011;3126;52.738;8.316;2023-08-07T14:17:32;1.38;;;1.23;;
6185;SDS011;3126;52.738;8.316;2023-08-07T14:22:33;1.95;;;0.85;;
6185;SDS011;3126;52.738;8.316;2023-08-07T14:27:36;2.33;;;1.27;;
6185;SDS011;3126;52.738;8.316;2023-08-07T14:32:37;2.78;;;1.02;;
6185;SDS011;3126;52.738;8.316;2023-08-07T14:37:39;3.70;;;0.85;;
6185;SDS011;3126;52.738;8.316;2023-08-07T14:42:40;1.92;;;1.00;;
6185;SDS011;3126;52.738;8.316;2023-08-07T14:47:41;4.30;;;1.10;;
6185;SDS011;3126;52.738;8.316;2023-08-07T14:52:42;2.58;;;1.52;;
6185;SDS011;3126;52.738;8.316;2023-08-07T14:57:43;3.45;;;1.45;;
6185;SDS011;3126;52.738;8.316;2023-08-07T15:02:44;5.43;;;1.73;;
6185;SDS011;3126;52.738;8.316;2023-08-07T15:07:45;2.88;;;1.35;;
6185;SDS011;3126;52.738;8.316;2023-08-07T15:12:46;5.43;;;1.85;;
6185;SDS011;3126;52.738;8.316;2023-08-07T15:17:47;2.65;;;1.70;;
6185;SDS011;3126;52.738;8.316;2023-08-07T15:22:48;3.63;;;2.05;;
6185;SDS011;3126;52.738;8.316;2023-08-07T15:27:49;4.15;;;2.00;;
6185;SDS011;3126;52.738;8.316;2023-08-07T15:32:50;4.30;;;2.05;;
6185;SDS011;3126;52.738;8.316;2023-08-07T15:37:51;4.95;;;1.58;;
6185;SDS011;3126;52.738;8.316;2023-08-07T15:42:52;7.00;;;1.90;;
6185;SDS011;3126;52.738;8.316;2023-08-07T15:47:53;3.65;;;1.75;;
6185;SDS011;3126;52.738;8.316;2023-08-07T15:52:54;4.88;;;1.85;;
6185;SDS011;3126;52.738;8.316;2023-08-07T15:57:56;6.03;;;2.35;;
6185;SDS011;3126;52.738;8.316;2023-08-07T16:02:57;5.30;;;2.10;;
6185;SDS011;3126;52.738;8.316;2023-08-07T16:07:58;4.22;;;1.90;;
6185;SDS011;3126;52.738;8.316;2023-08-07T16:13:00;4.47;;;2.30;;
6185;SDS011;3126;52.738;8.316;2023-08-07T16:18:01;4.25;;;1.70;;
6185;SDS011;3126;52.738;8.316;2023-08-07T16:23:02;5.88;;;2.40;;
6185;SDS011;3126;52.738;8.316;2023-08-07T16:28:03;6.00;;;2.25;;
6185;SDS011;3126;52.738;8.316;2023-08-07T16:33:05;7.15;;;2.58;;
6185;SDS011;3126;52.738;8.316;2023-08-07T16:38:06;9.52;;;2.90;;
6185;SDS011;3126;52.738;8.316;2023-08-07T16:43:08;6.80;;;3.38;;
6185;SDS011;3126;52.738;8.316;2023-08-07T16:48:09;6.07;;;2.58;;
6185;SDS011;3126;52.738;8.316;2023-08-07T16:53:10;3.92;;;2.05;;
6185;SDS011;3126;52.738;8.316;2023-08-07T16:58:11;7.70;;;1.52;;
6185;SDS011;3126;52.738;8.316;2023-08-07T17:03:12;4.43;;;1.42;;
6185;SDS011;3126;52.738;8.316;2023-08-07T17:08:14;4.18;;;1.40;;
6185;SDS011;3126;52.738;8.316;2023-08-07T17:13:15;3.08;;;1.35;;
6185;SDS011;3126;52.738;8.316;2023-08-07T17:18:16;3.15;;;1.33;;
6185;SDS011;3126;52.738;8.316;2023-08-07T17:23:17;3.38;;;1.30;;
6185;SDS011;3126;52.738;8.316;2023-08-07T17:28:18;3.70;;;1.75;;
6185;SDS011;3126;52.738;8.316;2023-08-07T17:33:19;4.97;;;1.10;;
6185;SDS011;3126;52.738;8.316;2023-08-07T17:38:20;3.92;;;1.77;;
6185;SDS011;3126;52.738;8.316;2023-08-07T17:43:21;7.82;;;2.03;;
6185;SDS011;3126;52.738;8.316;2023-08-07T17:48:22;4.25;;;1.30;;
6185;SDS011;3126;52.738;8.316;2023-08-07T17:53:23;3.25;;;1.63;;
6185;SDS011;3126;52.738;8.316;2023-08-07T17:58:24;2.30;;;1.70;;
6185;SDS011;3126;52.738;8.316;2023-08-07T18:03:25;2.20;;;1.20;;
6185;SDS011;3126;52.738;8.316;2023-08-07T18:08:25;2.95;;;1.55;;
6185;SDS011;3126;52.738;8.316;2023-08-07T18:13:26;3.65;;;1.48;;
6185;SDS011;3126;52.738;8.316;2023-08-07T18:18:27;3.72;;;1.67;;
6185;SDS011;3126;52.738;8.316;2023-08-07T18:23:28;3.33;;;1.42;;
6185;SDS011;3126;52.738;8.316;2023-08-07T18:28:31;4.55;;;1.17;;
6185;SDS011;3126;52.738;8.316;2023-08-07T18:33:32;4.28;;;1.38;;
6185;SDS011;3126;52.738;8.316;2023-08-07T18:38:33;2.22;;;1.23;;
6185;SDS011;3126;52.738;8.316;2023-08-07T18:43:34;8.07;;;1.50;;
6185;SDS011;3126;52.738;8.316;2023-08-07T18:48:35;4.18;;;1.45;;
6185;SDS011;3126;52.738;8.316;2023-08-07T18:53:36;5.50;;;1.60;;
6185;SDS011;3126;52.738;8.316;2023-08-07T18:58:39;2.67;;;1.50;;
6185;SDS011;3126;52.738;8.316;2023-08-07T19:03:40;4.38;;;1.70;;
6185;SDS011;3126;52.738;8.316;2023-08-07T19:08:40;4.22;;;1.38;;
6185;SDS011;3126;52.738;8.316;2023-08-07T19:13:41;3.92;;;1.77;;
6185;SDS011;3126;52.738;8.316;2023-08-07T19:18:42;3.95;;;1.50;;
6185;SDS011;3126;52.738;8.316;2023-08-07T19:23:43;5.78;;;1.70;;
6185;SDS011;3126;52.738;8.316;2023-08-07T19:28:44;3.35;;;1.70;;
6185;SDS011;3126;52.738;8.316;2023-08-07T19:33:45;3.15;;;1.48;;
6185;SDS011;3126;52.738;8.316;2023-08-07T19:38:46;2.58;;;1.20;;
6185;SDS011;3126;52.738;8.316;2023-08-07T19:43:47;4.18;;;1.27;;
6185;SDS011;3126;52.738;8.316;2023-08-07T19:48:48;2.70;;;1.08;;
6185;SDS011;3126;52.738;8.316;2023-08-07T19:53:49;3.15;;;1.40;;
6185;SDS011;3126;52.738;8.316;2023-08-07T19:58:50;6.38;;;2.00;;
6185;SDS011;3126;52.738;8.316;2023-08-07T20:03:51;5.35;;;1.58;;
6185;SDS011;3126;52.738;8.316;2023-08-07T20:08:52;4.25;;;1.30;;
6185;SDS011;3126;52.738;8.316;2023-08-07T20:13:53;4.35;;;1.90;;
6185;SDS011;3126;52.738;8.316;2023-08-07T20:18:54;4.03;;;1.85;;
6185;SDS011;3126;52.738;8.316;2023-08-07T20:23:55;4.00;;;1.50;;
6185;SDS011;3126;52.738;8.316;2023-08-07T20:28:56;3.47;;;1.45;;
6185;SDS011;3126;52.738;8.316;2023-08-07T20:33:58;1.88;;;1.60;;
6185;SDS011;3126;52.738;8.316;2023-08-07T20:38:59;3.70;;;1.80;;
6185;SDS011;3126;52.738;8.316;2023-08-07T20:44:00;3.13;;;1.63;;
6185;SDS011;3126;52.738;8.316;2023-08-07T20:49:01;3.67;;;1.85;;
6185;SDS011;3126;52.738;8.316;2023-08-07T20:54:02;1.77;;;1.55;;
6185;SDS011;3126;52.738;8.316;2023-08-07T20:59:03;2.78;;;1.58;;
6185;SDS011;3126;52.738;8.316;2023-08-07T21:04:04;2.65;;;1.55;;
6185;SDS011;3126;52.738;8.316;2023-08-07T21:09:05;2.78;;;1.48;;
6185;SDS011;3126;52.738;8.316;2023-08-07T21:14:06;5.53;;;1.77;;
6185;SDS011;3126;52.738;8.316;2023-08-07T21:19:07;8.75;;;1.98;;
6185;SDS011;3126;52.738;8.316;2023-08-07T21:24:08;5.07;;;1.77;;
6185;SDS011;3126;52.738;8.316;2023-08-07T21:29:11;4.63;;;1.85;;
6185;SDS011;3126;52.738;8.316;2023-08-07T21:34:12;2.10;;;1.67;;
6185;SDS011;3126;52.738;8.316;2023-08-07T21:39:13;3.10;;;1.70;;
6185;SDS011;3126;52.738;8.316;2023-08-07T21:44:14;4.35;;;1.77;;
6185;SDS011;3126;52.738;8.316;2023-08-07T21:49:15;2.55;;;1.40;;
6185;SDS011;3126;52.738;8.316;2023-08-07T21:54:16;2.15;;;1.73;;
6185;SDS011;3126;52.738;8.316;2023-08-07T21:59:17;3.40;;;1.75;;
6185;SDS011;3126;52.738;8.316;2023-08-07T22:04:18;3.08;;;2.03;;
6185;SDS011;3126;52.738;8.316;2023-08-07T22:09:19;7.50;;;2.85;;
6185;SDS011;3126;52.738;8.316;2023-08-07T22:14:20;9.13;;;2.30;;
6185;SDS011;3126;52.738;8.316;2023-08-07T22:19:21;4.35;;;1.85;;
6185;SDS011;3126;52.738;8.316;2023-08-07T22:24:22;3.05;;;1.75;;
6185;SDS011;3126;52.738;8.316;2023-08-07T22:29:23;6.57;;;2.67;;
6185;SDS011;3126;52.738;8.316;2023-08-07T22:34:24;4.05;;;2.08;;
6185;SDS011;3126;52.738;8.316;2023-08-07T22:39:25;3.47;;;2.10;;
6185;SDS011;3126;52.738;8.316;2023-08-07T22:44:26;2.95;;;2.20;;
6185;SDS011;3126;52.738;8.316;2023-08-07T22:49:27;3.15;;;2.45;;
6185;SDS011;3126;52.738;8.316;2023-08-07T22:54:28;3.97;;;2.03;;
6185;SDS011;3126;52.738;8.316;2023-08-07T22:59:29;5.50;;;2.63;;
6185;SDS011;3126;52.738;8.316;2023-08-07T23:04:30;5.03;;;2.63;;
6185;SDS011;3126;52.738;8.316;2023-08-07T23:09:31;3.50;;;2.30;;
6185;SDS011;3126;52.738;8.316;2023-08-07T23:14:32;5.93;;;2.65;;
6185;SDS011;3126;52.738;8.316;2023-08-07T23:19:33;4.53;;;2.53;;
6185;SDS011;3126;52.738;8.316;2023-08-07T23:24:34;3.40;;;2.75;;
6185;SDS011;3126;52.738;8.316;2023-08-07T23:29:35;7.35;;;2.88;;
6185;SDS011;3126;52.738;8.316;2023-08-07T23:34:38;5.25;;;2.80;;
6185;SDS011;3126;52.738;8.316;2023-08-07T23:39:39;5.07;;;2.75;;
6185;SDS011;3126;52.738;8.316;2023-08-07T23:44:40;5.07;;;3.13;;
6185;SDS011;3126;52.738;8.316;2023-08-07T23:49:41;4.63;;;2.78;;
6185;SDS011;3126;52.738;8.316;2023-08-07T23:54:42;8.82;;;3.13;;
6185;SDS011;3126;52.738;8.316;2023-08-07T23:59:43;3.30;;;3.00;;
